sensor_id;sensor_type;location;lat;lon;timestamp;P1;durP1;ratioP1;P2;durP2;ratioP2
39982;SDS011;25670;44.782;10.356;2023-01-15T00:01:17;101.25;;;53.70;;
39982;SDS011;25670;44.782;10.356;2023-01-15T00:03:54;113.38;;;55.97;;
39982;SDS011;25670;44.782;10.356;2023-01-15T00:06:22;107.88;;;54.80;;
39982;SDS011;25670;44.782;10.356;2023-01-15T00:08:50;102.70;;;53.92;;
39982;SDS011;25670;44.782;10.356;2023-01-15T00:11:17;103.70;;;54.42;;
39982;SDS011;25670;44.782;10.356;2023-01-15T00:13:44;102.90;;;53.95;;
39982;SDS011;25670;44.782;10.356;2023-01-15T00:16:12;108.30;;;55.58;;
39982;SDS011;25670;44.782;10.356;2023-01-15T00:18:50;106.43;;;54.38;;
39982;SDS011;25670;44.782;10.356;2023-01-15T00:21:18;105.65;;;56.08;;
39982;SDS011;25670;44.782;10.356;2023-01-15T00:23:46;106.13;;;55.35;;
39982;SDS011;25670;44.782;10.356;2023-01-15T00:26:31;106.88;;;54.47;;
39982;SDS011;25670;44.782;10.356;2023-01-15T00:29:17;103.63;;;53.40;;
39982;SDS011;25670;44.782;10.356;2023-01-15T00:31:49;110.10;;;55.70;;
39982;SDS011;25670;44.782;10.356;2023-01-15T00:34:29;111.05;;;55.33;;
39982;SDS011;25670;44.782;10.356;2023-01-15T00:36:56;111.57;;;57.72;;
39982;SDS011;25670;44.782;10.356;2023-01-15T00:39:23;108.53;;;55.75;;
39982;SDS011;25670;44.782;10.356;2023-01-15T00:41:51;106.65;;;58.70;;
39982;SDS011;25670;44.782;10.356;2023-01-15T00:44:18;111.10;;;57.53;;
39982;SDS011;25670;44.782;10.356;2023-01-15T00:46:45;113.30;;;57.88;;
39982;SDS011;25670;44.782;10.356;2023-01-15T00:49:12;117.80;;;59.08;;
39982;SDS011;25670;44.782;10.356;2023-01-15T00:51:39;118.03;;;58.55;;
39982;SDS011;25670;44.782;10.356;2023-01-15T00:54:06;114.13;;;59.70;;
39982;SDS011;25670;44.782;10.356;2023-01-15T00:56:32;108.85;;;58.70;;
39982;SDS011;25670;44.782;10.356;2023-01-15T00:59:02;118.80;;;59.53;;
39982;SDS011;25670;44.782;10.356;2023-01-15T01:01:30;111.70;;;59.33;;
39982;SDS011;25670;44.782;10.356;2023-01-15T01:03:56;112.63;;;60.47;;
39982;SDS011;25670;44.782;10.356;2023-01-15T01:06:29;114.07;;;60.47;;
39982;SDS011;25670;44.782;10.356;2023-01-15T01:08:55;111.97;;;57.63;;
39982;SDS011;25670;44.782;10.356;2023-01-15T01:11:22;116.38;;;58.25;;
39982;SDS011;25670;44.782;10.356;2023-01-15T01:13:53;120.50;;;59.75;;
39982;SDS011;25670;44.782;10.356;2023-01-15T01:16:30;105.47;;;56.97;;
39982;SDS011;25670;44.782;10.356;2023-01-15T01:19:06;104.95;;;57.40;;
39982;SDS011;25670;44.782;10.356;2023-01-15T01:21:35;111.13;;;58.05;;
39982;SDS011;25670;44.782;10.356;2023-01-15T01:24:03;113.13;;;59.72;;
39982;SDS011;25670;44.782;10.356;2023-01-15T01:26:30;104.85;;;55.78;;
39982;SDS011;25670;44.782;10.356;2023-01-15T01:28:56;112.05;;;58.22;;
39982;SDS011;25670;44.782;10.356;2023-01-15T01:31:23;111.05;;;57.55;;
39982;SDS011;25670;44.782;10.356;2023-01-15T01:33:50;106.53;;;55.72;;
39982;SDS011;25670;44.782;10.356;2023-01-15T01:36:18;109.20;;;58.60;;
39982;SDS011;25670;44.782;10.356;2023-01-15T01:38:48;110.95;;;58.25;;
39982;SDS011;25670;44.782;10.356;2023-01-15T01:41:15;114.72;;;59.33;;
39982;SDS011;25670;44.782;10.356;2023-01-15T01:43:52;114.30;;;59.28;;
39982;SDS011;25670;44.782;10.356;2023-01-15T01:46:27;124.75;;;59.65;;
39982;SDS011;25670;44.782;10.356;2023-01-15T01:48:56;110.88;;;59.20;;
39982;SDS011;25670;44.782;10.356;2023-01-15T01:51:34;110.05;;;58.00;;
39982;SDS011;25670;44.782;10.356;2023-01-15T01:54:07;115.72;;;59.35;;
39982;SDS011;25670;44.782;10.356;2023-01-15T01:56:35;120.72;;;60.55;;
39982;SDS011;25670;44.782;10.356;2023-01-15T01:59:02;122.60;;;61.00;;
39982;SDS011;25670;44.782;10.356;2023-01-15T02:01:31;114.32;;;60.45;;
39982;SDS011;25670;44.782;10.356;2023-01-15T02:03:58;124.57;;;62.67;;
39982;SDS011;25670;44.782;10.356;2023-01-15T02:06:24;112.63;;;60.03;;
39982;SDS011;25670;44.782;10.356;2023-01-15T02:08:53;114.88;;;60.50;;
39982;SDS011;25670;44.782;10.356;2023-01-15T02:11:20;116.75;;;61.25;;
39982;SDS011;25670;44.782;10.356;2023-01-15T02:13:52;113.32;;;60.38;;
39982;SDS011;25670;44.782;10.356;2023-01-15T02:27:52;117.13;;;63.83;;
39982;SDS011;25670;44.782;10.356;2023-01-15T02:30:27;113.22;;;62.42;;
39982;SDS011;25670;44.782;10.356;2023-01-15T02:33:02;121.22;;;63.88;;
39982;SDS011;25670;44.782;10.356;2023-01-15T02:35:47;120.22;;;62.63;;
39982;SDS011;25670;44.782;10.356;2023-01-15T02:38:20;115.05;;;60.38;;
39982;SDS011;25670;44.782;10.356;2023-01-15T02:40:52;118.38;;;62.38;;
39982;SDS011;25670;44.782;10.356;2023-01-15T02:43:21;118.50;;;59.97;;
39982;SDS011;25670;44.782;10.356;2023-01-15T02:45:51;117.22;;;62.08;;
39982;SDS011;25670;44.782;10.356;2023-01-15T02:48:22;115.03;;;61.35;;
39982;SDS011;25670;44.782;10.356;2023-01-15T02:50:53;113.00;;;56.47;;
39982;SDS011;25670;44.782;10.356;2023-01-15T02:53:24;109.13;;;58.77;;
39982;SDS011;25670;44.782;10.356;2023-01-15T02:56:01;123.00;;;58.92;;
39982;SDS011;25670;44.782;10.356;2023-01-15T02:58:41;107.80;;;59.13;;
39982;SDS011;25670;44.782;10.356;2023-01-15T03:01:14;113.55;;;60.20;;
39982;SDS011;25670;44.782;10.356;2023-01-15T03:09:09;116.75;;;60.13;;
39982;SDS011;25670;44.782;10.356;2023-01-15T03:11:37;115.43;;;59.60;;
39982;SDS011;25670;44.782;10.356;2023-01-15T03:14:16;112.20;;;59.03;;
39982;SDS011;25670;44.782;10.356;2023-01-15T03:16:48;117.57;;;62.28;;
39982;SDS011;25670;44.782;10.356;2023-01-15T03:19:31;122.72;;;61.65;;
39982;SDS011;25670;44.782;10.356;2023-01-15T03:22:18;108.22;;;58.17;;
39982;SDS011;25670;44.782;10.356;2023-01-15T03:28:00;117.28;;;60.90;;
39982;SDS011;25670;44.782;10.356;2023-01-15T03:30:29;115.93;;;62.00;;
39982;SDS011;25670;44.782;10.356;2023-01-15T03:32:56;109.60;;;61.15;;
39982;SDS011;25670;44.782;10.356;2023-01-15T03:38:31;126.07;;;62.88;;
39982;SDS011;25670;44.782;10.356;2023-01-15T03:49:41;118.20;;;61.55;;
39982;SDS011;25670;44.782;10.356;2023-01-15T03:55:18;108.68;;;59.33;;
39982;SDS011;25670;44.782;10.356;2023-01-15T03:58:13;117.88;;;61.10;;
39982;SDS011;25670;44.782;10.356;2023-01-15T04:00:52;108.63;;;59.08;;
39982;SDS011;25670;44.782;10.356;2023-01-15T04:03:23;107.70;;;59.92;;
39982;SDS011;25670;44.782;10.356;2023-01-15T04:05:51;109.53;;;60.58;;
39982;SDS011;25670;44.782;10.356;2023-01-15T04:08:20;109.32;;;58.03;;
39982;SDS011;25670;44.782;10.356;2023-01-15T04:10:53;111.07;;;60.30;;
39982;SDS011;25670;44.782;10.356;2023-01-15T04:13:24;110.15;;;58.35;;
39982;SDS011;25670;44.782;10.356;2023-01-15T04:15:53;107.93;;;58.90;;
39982;SDS011;25670;44.782;10.356;2023-01-15T04:18:21;108.82;;;55.92;;
39982;SDS011;25670;44.782;10.356;2023-01-15T04:20:48;105.03;;;57.88;;
39982;SDS011;25670;44.782;10.356;2023-01-15T04:23:14;103.18;;;56.45;;
39982;SDS011;25670;44.782;10.356;2023-01-15T04:25:41;118.53;;;60.50;;
39982;SDS011;25670;44.782;10.356;2023-01-15T04:28:07;104.40;;;58.38;;
39982;SDS011;25670;44.782;10.356;2023-01-15T04:30:34;110.95;;;59.47;;
39982;SDS011;25670;44.782;10.356;2023-01-15T04:33:01;117.30;;;59.10;;
39982;SDS011;25670;44.782;10.356;2023-01-15T04:35:28;114.65;;;59.78;;
39982;SDS011;25670;44.782;10.356;2023-01-15T04:37:55;105.03;;;57.55;;
39982;SDS011;25670;44.782;10.356;2023-01-15T04:40:25;117.30;;;61.05;;
39982;SDS011;25670;44.782;10.356;2023-01-15T04:43:10;106.57;;;57.20;;
39982;SDS011;25670;44.782;10.356;2023-01-15T04:45:56;114.03;;;60.17;;
39982;SDS011;25670;44.782;10.356;2023-01-15T04:48:23;112.68;;;57.63;;
39982;SDS011;25670;44.782;10.356;2023-01-15T04:50:50;110.88;;;58.55;;
39982;SDS011;25670;44.782;10.356;2023-01-15T04:53:16;107.60;;;57.97;;
39982;SDS011;25670;44.782;10.356;2023-01-15T04:55:42;103.35;;;57.80;;
39982;SDS011;25670;44.782;10.356;2023-01-15T04:58:08;108.40;;;59.05;;
39982;SDS011;25670;44.782;10.356;2023-01-15T05:00:35;110.60;;;58.75;;
39982;SDS011;25670;44.782;10.356;2023-01-15T05:03:01;113.93;;;59.88;;
39982;SDS011;25670;44.782;10.356;2023-01-15T05:05:27;109.13;;;60.25;;
39982;SDS011;25670;44.782;10.356;2023-01-15T05:07:54;112.03;;;59.80;;
39982;SDS011;25670;44.782;10.356;2023-01-15T05:10:20;111.95;;;59.70;;
39982;SDS011;25670;44.782;10.356;2023-01-15T05:12:46;113.75;;;59.05;;
39982;SDS011;25670;44.782;10.356;2023-01-15T05:15:13;107.35;;;57.10;;
39982;SDS011;25670;44.782;10.356;2023-01-15T05:17:39;111.40;;;58.35;;
39982;SDS011;25670;44.782;10.356;2023-01-15T05:20:06;113.55;;;60.88;;
39982;SDS011;25670;44.782;10.356;2023-01-15T05:22:33;110.03;;;59.33;;
39982;SDS011;25670;44.782;10.356;2023-01-15T05:24:59;111.55;;;59.92;;
39982;SDS011;25670;44.782;10.356;2023-01-15T05:27:26;112.65;;;60.65;;
39982;SDS011;25670;44.782;10.356;2023-01-15T05:29:52;113.38;;;58.75;;
39982;SDS011;25670;44.782;10.356;2023-01-15T05:32:18;119.13;;;60.58;;
39982;SDS011;25670;44.782;10.356;2023-01-15T05:34:44;109.28;;;57.90;;
39982;SDS011;25670;44.782;10.356;2023-01-15T05:37:11;108.38;;;59.85;;
39982;SDS011;25670;44.782;10.356;2023-01-15T05:39:37;114.10;;;59.42;;
39982;SDS011;25670;44.782;10.356;2023-01-15T05:42:03;118.38;;;60.92;;
39982;SDS011;25670;44.782;10.356;2023-01-15T05:44:30;113.07;;;61.53;;
39982;SDS011;25670;44.782;10.356;2023-01-15T05:46:58;114.53;;;61.33;;
39982;SDS011;25670;44.782;10.356;2023-01-15T05:49:30;120.22;;;61.85;;
39982;SDS011;25670;44.782;10.356;2023-01-15T05:51:57;116.18;;;61.55;;
39982;SDS011;25670;44.782;10.356;2023-01-15T05:54:29;110.90;;;61.33;;
39982;SDS011;25670;44.782;10.356;2023-01-15T05:56:59;110.20;;;59.65;;
39982;SDS011;25670;44.782;10.356;2023-01-15T05:59:27;114.90;;;58.22;;
39982;SDS011;25670;44.782;10.356;2023-01-15T06:01:54;107.38;;;58.63;;
39982;SDS011;25670;44.782;10.356;2023-01-15T06:04:21;109.72;;;60.17;;
39982;SDS011;25670;44.782;10.356;2023-01-15T06:06:50;109.63;;;59.80;;
39982;SDS011;25670;44.782;10.356;2023-01-15T06:09:18;111.18;;;60.78;;
39982;SDS011;25670;44.782;10.356;2023-01-15T06:11:45;116.35;;;62.75;;
39982;SDS011;25670;44.782;10.356;2023-01-15T06:14:12;120.35;;;62.35;;
39982;SDS011;25670;44.782;10.356;2023-01-15T06:16:38;106.45;;;58.60;;
39982;SDS011;25670;44.782;10.356;2023-01-15T06:19:05;110.45;;;58.88;;
39982;SDS011;25670;44.782;10.356;2023-01-15T06:21:33;100.97;;;56.20;;
39982;SDS011;25670;44.782;10.356;2023-01-15T06:24:00;106.20;;;57.45;;
39982;SDS011;25670;44.782;10.356;2023-01-15T06:26:27;103.88;;;56.38;;
39982;SDS011;25670;44.782;10.356;2023-01-15T06:28:53;113.90;;;59.97;;
39982;SDS011;25670;44.782;10.356;2023-01-15T06:31:20;103.93;;;57.90;;
39982;SDS011;25670;44.782;10.356;2023-01-15T06:33:47;101.28;;;56.15;;
39982;SDS011;25670;44.782;10.356;2023-01-15T06:36:15;115.63;;;59.00;;
39982;SDS011;25670;44.782;10.356;2023-01-15T06:41:13;108.65;;;58.45;;
39982;SDS011;25670;44.782;10.356;2023-01-15T06:44:03;106.45;;;57.40;;
39982;SDS011;25670;44.782;10.356;2023-01-15T06:46:49;107.60;;;58.20;;
39982;SDS011;25670;44.782;10.356;2023-01-15T06:49:35;117.93;;;59.33;;
39982;SDS011;25670;44.782;10.356;2023-01-15T06:52:02;106.90;;;59.70;;
39982;SDS011;25670;44.782;10.356;2023-01-15T06:54:29;107.38;;;59.30;;
39982;SDS011;25670;44.782;10.356;2023-01-15T06:56:56;99.97;;;57.42;;
39982;SDS011;25670;44.782;10.356;2023-01-15T06:59:22;119.20;;;61.75;;
39982;SDS011;25670;44.782;10.356;2023-01-15T07:01:48;103.05;;;58.85;;
39982;SDS011;25670;44.782;10.356;2023-01-15T07:04:15;108.13;;;59.63;;
39982;SDS011;25670;44.782;10.356;2023-01-15T07:06:41;105.72;;;59.67;;
39982;SDS011;25670;44.782;10.356;2023-01-15T07:09:08;108.60;;;59.70;;
39982;SDS011;25670;44.782;10.356;2023-01-15T07:11:34;113.43;;;61.85;;
39982;SDS011;25670;44.782;10.356;2023-01-15T07:14:00;111.53;;;62.03;;
39982;SDS011;25670;44.782;10.356;2023-01-15T07:16:36;110.50;;;58.42;;
39982;SDS011;25670;44.782;10.356;2023-01-15T07:19:02;114.72;;;64.15;;
39982;SDS011;25670;44.782;10.356;2023-01-15T07:21:29;117.65;;;63.83;;
39982;SDS011;25670;44.782;10.356;2023-01-15T07:23:59;109.55;;;60.10;;
39982;SDS011;25670;44.782;10.356;2023-01-15T07:26:26;114.65;;;63.83;;
39982;SDS011;25670;44.782;10.356;2023-01-15T07:28:53;113.07;;;62.92;;
39982;SDS011;25670;44.782;10.356;2023-01-15T07:31:19;112.32;;;59.42;;
39982;SDS011;25670;44.782;10.356;2023-01-15T07:33:45;101.30;;;57.22;;
39982;SDS011;25670;44.782;10.356;2023-01-15T07:36:12;103.55;;;58.92;;
39982;SDS011;25670;44.782;10.356;2023-01-15T07:38:38;107.28;;;57.45;;
39982;SDS011;25670;44.782;10.356;2023-01-15T07:41:05;107.72;;;59.58;;
39982;SDS011;25670;44.782;10.356;2023-01-15T07:43:50;105.82;;;58.55;;
39982;SDS011;25670;44.782;10.356;2023-01-15T07:46:35;109.70;;;60.90;;
39982;SDS011;25670;44.782;10.356;2023-01-15T07:49:20;111.93;;;61.80;;
39982;SDS011;25670;44.782;10.356;2023-01-15T07:52:05;105.10;;;59.42;;
39982;SDS011;25670;44.782;10.356;2023-01-15T07:54:31;105.95;;;59.65;;
39982;SDS011;25670;44.782;10.356;2023-01-15T07:56:58;113.65;;;61.97;;
39982;SDS011;25670;44.782;10.356;2023-01-15T07:59:24;108.05;;;59.75;;
39982;SDS011;25670;44.782;10.356;2023-01-15T08:01:50;116.35;;;63.85;;
39982;SDS011;25670;44.782;10.356;2023-01-15T08:04:16;118.07;;;62.35;;
39982;SDS011;25670;44.782;10.356;2023-01-15T08:06:43;110.43;;;60.53;;
39982;SDS011;25670;44.782;10.356;2023-01-15T08:09:09;113.68;;;61.85;;
39982;SDS011;25670;44.782;10.356;2023-01-15T08:11:35;113.10;;;61.25;;
39982;SDS011;25670;44.782;10.356;2023-01-15T08:14:20;116.53;;;63.45;;
39982;SDS011;25670;44.782;10.356;2023-01-15T08:17:05;114.75;;;61.72;;
39982;SDS011;25670;44.782;10.356;2023-01-15T08:19:32;114.28;;;62.13;;
39982;SDS011;25670;44.782;10.356;2023-01-15T08:21:58;114.28;;;64.22;;
39982;SDS011;25670;44.782;10.356;2023-01-15T08:24:27;115.43;;;63.80;;
39982;SDS011;25670;44.782;10.356;2023-01-15T08:26:53;116.88;;;63.65;;
39982;SDS011;25670;44.782;10.356;2023-01-15T08:29:20;109.60;;;62.90;;
39982;SDS011;25670;44.782;10.356;2023-01-15T08:31:47;111.40;;;60.78;;
39982;SDS011;25670;44.782;10.356;2023-01-15T08:34:13;109.32;;;61.00;;
39982;SDS011;25670;44.782;10.356;2023-01-15T08:36:39;111.88;;;62.97;;
39982;SDS011;25670;44.782;10.356;2023-01-15T08:39:06;105.30;;;60.13;;
39982;SDS011;25670;44.782;10.356;2023-01-15T08:41:32;112.10;;;61.35;;
39982;SDS011;25670;44.782;10.356;2023-01-15T08:43:58;107.97;;;60.83;;
39982;SDS011;25670;44.782;10.356;2023-01-15T08:46:24;107.78;;;60.72;;
39982;SDS011;25670;44.782;10.356;2023-01-15T08:48:51;107.85;;;61.17;;
39982;SDS011;25670;44.782;10.356;2023-01-15T08:51:18;111.22;;;61.10;;
39982;SDS011;25670;44.782;10.356;2023-01-15T08:53:44;113.53;;;59.72;;
39982;SDS011;25670;44.782;10.356;2023-01-15T08:56:11;103.63;;;58.13;;
39982;SDS011;25670;44.782;10.356;2023-01-15T08:58:39;105.50;;;59.30;;
39982;SDS011;25670;44.782;10.356;2023-01-15T09:01:06;110.95;;;61.10;;
39982;SDS011;25670;44.782;10.356;2023-01-15T09:03:33;105.55;;;60.00;;
39982;SDS011;25670;44.782;10.356;2023-01-15T09:06:00;109.10;;;63.33;;
39982;SDS011;25670;44.782;10.356;2023-01-15T09:08:28;107.57;;;61.58;;
39982;SDS011;25670;44.782;10.356;2023-01-15T09:11:01;115.38;;;62.10;;
39982;SDS011;25670;44.782;10.356;2023-01-15T09:13:28;111.15;;;60.70;;
39982;SDS011;25670;44.782;10.356;2023-01-15T09:15:59;113.18;;;61.53;;
39982;SDS011;25670;44.782;10.356;2023-01-15T09:18:26;108.57;;;60.47;;
39982;SDS011;25670;44.782;10.356;2023-01-15T09:20:52;98.10;;;56.47;;
39982;SDS011;25670;44.782;10.356;2023-01-15T09:23:18;107.97;;;59.15;;
39982;SDS011;25670;44.782;10.356;2023-01-15T09:25:57;100.55;;;58.55;;
39982;SDS011;25670;44.782;10.356;2023-01-15T09:28:26;102.97;;;56.20;;
39982;SDS011;25670;44.782;10.356;2023-01-15T09:30:55;105.90;;;58.75;;
39982;SDS011;25670;44.782;10.356;2023-01-15T09:33:22;105.28;;;59.05;;
39982;SDS011;25670;44.782;10.356;2023-01-15T09:35:48;110.90;;;59.83;;
39982;SDS011;25670;44.782;10.356;2023-01-15T09:38:15;109.47;;;58.92;;
39982;SDS011;25670;44.782;10.356;2023-01-15T09:40:52;97.88;;;58.47;;
39982;SDS011;25670;44.782;10.356;2023-01-15T09:47:08;102.70;;;58.47;;
39982;SDS011;25670;44.782;10.356;2023-01-15T09:57:27;94.53;;;55.47;;
39982;SDS011;25670;44.782;10.356;2023-01-15T09:59:55;107.53;;;57.72;;
39982;SDS011;25670;44.782;10.356;2023-01-15T10:05:22;94.07;;;54.90;;
39982;SDS011;25670;44.782;10.356;2023-01-15T10:10:54;86.90;;;52.83;;
39982;SDS011;25670;44.782;10.356;2023-01-15T10:16:28;88.60;;;52.95;;
39982;SDS011;25670;44.782;10.356;2023-01-15T10:18:59;88.57;;;51.70;;
39982;SDS011;25670;44.782;10.356;2023-01-15T10:21:48;82.85;;;47.20;;
39982;SDS011;25670;44.782;10.356;2023-01-15T10:26:57;84.80;;;48.78;;
39982;SDS011;25670;44.782;10.356;2023-01-15T10:35:29;88.97;;;51.35;;
39982;SDS011;25670;44.782;10.356;2023-01-15T10:38:11;84.70;;;49.55;;
39982;SDS011;25670;44.782;10.356;2023-01-15T10:40:45;86.28;;;50.00;;
39982;SDS011;25670;44.782;10.356;2023-01-15T10:46:15;87.57;;;50.67;;
39982;SDS011;25670;44.782;10.356;2023-01-15T10:54:04;91.28;;;51.20;;
39982;SDS011;25670;44.782;10.356;2023-01-15T10:57:24;84.03;;;49.40;;
39982;SDS011;25670;44.782;10.356;2023-01-15T11:02:09;88.60;;;49.38;;
39982;SDS011;25670;44.782;10.356;2023-01-15T11:04:47;88.50;;;50.33;;
39982;SDS011;25670;44.782;10.356;2023-01-15T11:07:14;86.63;;;50.05;;
39982;SDS011;25670;44.782;10.356;2023-01-15T11:09:41;83.40;;;47.45;;
39982;SDS011;25670;44.782;10.356;2023-01-15T11:12:22;86.47;;;48.25;;
39982;SDS011;25670;44.782;10.356;2023-01-15T11:14:52;87.80;;;49.42;;
39982;SDS011;25670;44.782;10.356;2023-01-15T11:17:41;91.55;;;51.33;;
39982;SDS011;25670;44.782;10.356;2023-01-15T11:20:43;88.68;;;48.92;;
39982;SDS011;25670;44.782;10.356;2023-01-15T11:23:12;89.93;;;48.10;;
39982;SDS011;25670;44.782;10.356;2023-01-15T11:25:57;87.05;;;47.85;;
39982;SDS011;25670;44.782;10.356;2023-01-15T11:31:00;85.28;;;47.83;;
39982;SDS011;25670;44.782;10.356;2023-01-15T11:33:27;83.28;;;49.47;;
39982;SDS011;25670;44.782;10.356;2023-01-15T11:35:55;90.30;;;48.50;;
39982;SDS011;25670;44.782;10.356;2023-01-15T11:38:25;88.50;;;48.90;;
39982;SDS011;25670;44.782;10.356;2023-01-15T11:40:55;89.50;;;49.15;;
39982;SDS011;25670;44.782;10.356;2023-01-15T11:43:25;87.65;;;48.67;;
39982;SDS011;25670;44.782;10.356;2023-01-15T11:49:20;81.90;;;48.83;;
39982;SDS011;25670;44.782;10.356;2023-01-15T11:52:09;83.63;;;48.28;;
39982;SDS011;25670;44.782;10.356;2023-01-15T11:54:44;90.90;;;50.20;;
39982;SDS011;25670;44.782;10.356;2023-01-15T11:57:21;83.88;;;49.92;;
39982;SDS011;25670;44.782;10.356;2023-01-15T11:59:56;91.30;;;49.40;;
39982;SDS011;25670;44.782;10.356;2023-01-15T12:05:24;86.15;;;49.17;;
39982;SDS011;25670;44.782;10.356;2023-01-15T12:07:53;88.70;;;49.58;;
39982;SDS011;25670;44.782;10.356;2023-01-15T12:10:41;80.85;;;46.35;;
39982;SDS011;25670;44.782;10.356;2023-01-15T12:27:31;88.97;;;49.80;;
39982;SDS011;25670;44.782;10.356;2023-01-15T12:30:16;80.50;;;48.15;;
39982;SDS011;25670;44.782;10.356;2023-01-15T12:32:45;83.17;;;50.07;;
39982;SDS011;25670;44.782;10.356;2023-01-15T12:35:29;83.43;;;48.05;;
39982;SDS011;25670;44.782;10.356;2023-01-15T12:37:58;84.35;;;49.55;;
39982;SDS011;25670;44.782;10.356;2023-01-15T12:40:39;94.63;;;51.58;;
39982;SDS011;25670;44.782;10.356;2023-01-15T12:43:14;82.75;;;47.90;;
39982;SDS011;25670;44.782;10.356;2023-01-15T12:46:05;82.18;;;49.13;;
39982;SDS011;25670;44.782;10.356;2023-01-15T12:48:46;76.47;;;45.75;;
39982;SDS011;25670;44.782;10.356;2023-01-15T12:51:27;87.47;;;50.50;;
39982;SDS011;25670;44.782;10.356;2023-01-15T12:54:00;91.13;;;49.67;;
39982;SDS011;25670;44.782;10.356;2023-01-15T12:56:46;81.22;;;47.97;;
39982;SDS011;25670;44.782;10.356;2023-01-15T12:59:50;84.55;;;50.42;;
39982;SDS011;25670;44.782;10.356;2023-01-15T13:05:15;92.68;;;51.60;;
39982;SDS011;25670;44.782;10.356;2023-01-15T13:07:48;88.03;;;48.60;;
39982;SDS011;25670;44.782;10.356;2023-01-15T13:10:27;100.18;;;52.83;;
39982;SDS011;25670;44.782;10.356;2023-01-15T13:13:18;91.50;;;51.97;;
39982;SDS011;25670;44.782;10.356;2023-01-15T13:21:47;88.97;;;51.63;;
39982;SDS011;25670;44.782;10.356;2023-01-15T13:31:54;101.93;;;55.47;;
39982;SDS011;25670;44.782;10.356;2023-01-15T13:37:26;90.45;;;52.20;;
39982;SDS011;25670;44.782;10.356;2023-01-15T13:39:59;95.15;;;53.10;;
39982;SDS011;25670;44.782;10.356;2023-01-15T13:42:29;85.82;;;50.95;;
39982;SDS011;25670;44.782;10.356;2023-01-15T13:47:44;89.75;;;50.50;;
39982;SDS011;25670;44.782;10.356;2023-01-15T13:50:18;80.18;;;48.40;;
39982;SDS011;25670;44.782;10.356;2023-01-15T13:53:16;84.43;;;48.30;;
39982;SDS011;25670;44.782;10.356;2023-01-15T13:55:52;90.15;;;51.38;;
39982;SDS011;25670;44.782;10.356;2023-01-15T13:58:28;94.30;;;53.47;;
39982;SDS011;25670;44.782;10.356;2023-01-15T14:00:59;92.93;;;53.72;;
39982;SDS011;25670;44.782;10.356;2023-01-15T14:06:34;103.20;;;56.33;;
39982;SDS011;25670;44.782;10.356;2023-01-15T14:14:48;94.13;;;54.97;;
39982;SDS011;25670;44.782;10.356;2023-01-15T14:36:45;116.03;;;64.43;;
39982;SDS011;25670;44.782;10.356;2023-01-15T14:39:23;115.32;;;63.50;;
39982;SDS011;25670;44.782;10.356;2023-01-15T14:42:12;106.72;;;61.45;;
39982;SDS011;25670;44.782;10.356;2023-01-15T14:52:51;106.10;;;61.67;;
39982;SDS011;25670;44.782;10.356;2023-01-15T14:55:20;111.80;;;65.28;;
39982;SDS011;25670;44.782;10.356;2023-01-15T14:58:06;110.97;;;63.92;;
39982;SDS011;25670;44.782;10.356;2023-01-15T15:00:41;114.47;;;64.10;;
39982;SDS011;25670;44.782;10.356;2023-01-15T15:05:42;111.32;;;61.10;;
39982;SDS011;25670;44.782;10.356;2023-01-15T15:08:10;111.75;;;62.75;;
39982;SDS011;25670;44.782;10.356;2023-01-15T15:10:40;106.18;;;61.33;;
39982;SDS011;25670;44.782;10.356;2023-01-15T15:13:14;115.07;;;63.63;;
39982;SDS011;25670;44.782;10.356;2023-01-15T15:15:47;117.82;;;64.72;;
39982;SDS011;25670;44.782;10.356;2023-01-15T15:18:41;109.15;;;62.38;;
39982;SDS011;25670;44.782;10.356;2023-01-15T15:21:16;112.95;;;62.78;;
39982;SDS011;25670;44.782;10.356;2023-01-15T15:23:55;109.65;;;63.90;;
39982;SDS011;25670;44.782;10.356;2023-01-15T15:26:30;114.15;;;64.15;;
39982;SDS011;25670;44.782;10.356;2023-01-15T15:29:00;117.45;;;64.53;;
39982;SDS011;25670;44.782;10.356;2023-01-15T15:31:30;120.00;;;66.07;;
39982;SDS011;25670;44.782;10.356;2023-01-15T15:33:58;113.68;;;63.42;;
39982;SDS011;25670;44.782;10.356;2023-01-15T15:36:26;110.15;;;64.45;;
39982;SDS011;25670;44.782;10.356;2023-01-15T15:39:03;120.20;;;65.65;;
39982;SDS011;25670;44.782;10.356;2023-01-15T15:41:40;112.45;;;61.97;;
39982;SDS011;25670;44.782;10.356;2023-01-15T15:47:36;117.85;;;63.45;;
39982;SDS011;25670;44.782;10.356;2023-01-15T15:53:00;111.80;;;62.75;;
39982;SDS011;25670;44.782;10.356;2023-01-15T15:55:35;110.03;;;60.10;;
39982;SDS011;25670;44.782;10.356;2023-01-15T15:58:07;96.88;;;55.55;;
39982;SDS011;25670;44.782;10.356;2023-01-15T16:00:40;99.95;;;57.70;;
39982;SDS011;25670;44.782;10.356;2023-01-15T16:03:16;98.35;;;58.10;;
39982;SDS011;25670;44.782;10.356;2023-01-15T16:08:50;98.55;;;56.20;;
39982;SDS011;25670;44.782;10.356;2023-01-15T16:11:18;102.47;;;59.10;;
39982;SDS011;25670;44.782;10.356;2023-01-15T16:13:49;99.65;;;58.97;;
39982;SDS011;25670;44.782;10.356;2023-01-15T16:16:18;96.63;;;56.03;;
39982;SDS011;25670;44.782;10.356;2023-01-15T16:18:49;102.50;;;57.20;;
39982;SDS011;25670;44.782;10.356;2023-01-15T16:23:58;93.82;;;56.10;;
39982;SDS011;25670;44.782;10.356;2023-01-15T16:29:04;94.93;;;54.47;;
39982;SDS011;25670;44.782;10.356;2023-01-15T16:31:40;90.63;;;52.15;;
39982;SDS011;25670;44.782;10.356;2023-01-15T16:34:10;89.03;;;51.88;;
39982;SDS011;25670;44.782;10.356;2023-01-15T16:36:44;100.57;;;55.97;;
39982;SDS011;25670;44.782;10.356;2023-01-15T16:39:28;95.18;;;53.25;;
39982;SDS011;25670;44.782;10.356;2023-01-15T16:41:55;90.88;;;52.30;;
39982;SDS011;25670;44.782;10.356;2023-01-15T16:44:24;92.38;;;52.47;;
39982;SDS011;25670;44.782;10.356;2023-01-15T16:46:52;97.47;;;53.97;;
39982;SDS011;25670;44.782;10.356;2023-01-15T16:51:46;98.97;;;55.92;;
39982;SDS011;25670;44.782;10.356;2023-01-15T17:01:54;96.88;;;54.97;;
39982;SDS011;25670;44.782;10.356;2023-01-15T17:04:32;99.22;;;53.20;;
39982;SDS011;25670;44.782;10.356;2023-01-15T17:07:01;97.85;;;53.85;;
39982;SDS011;25670;44.782;10.356;2023-01-15T17:09:36;89.63;;;50.22;;
39982;SDS011;25670;44.782;10.356;2023-01-15T17:17:45;82.43;;;45.90;;
39982;SDS011;25670;44.782;10.356;2023-01-15T17:20:12;86.45;;;48.88;;
39982;SDS011;25670;44.782;10.356;2023-01-15T17:22:44;87.07;;;50.65;;
39982;SDS011;25670;44.782;10.356;2023-01-15T17:27:58;90.03;;;50.58;;
39982;SDS011;25670;44.782;10.356;2023-01-15T17:30:26;86.28;;;49.20;;
39982;SDS011;25670;44.782;10.356;2023-01-15T17:32:56;82.28;;;47.40;;
39982;SDS011;25670;44.782;10.356;2023-01-15T17:35:23;82.78;;;48.13;;
39982;SDS011;25670;44.782;10.356;2023-01-15T17:37:53;88.07;;;47.85;;
39982;SDS011;25670;44.782;10.356;2023-01-15T17:40:19;82.25;;;47.13;;